• Join FlightAware (Why Join?)
  • Login
  • US Flag 
04:19AM EDT


 

Airport Tracker/Info


-or-


 

Live Flight TrackerFlight Track Log ✈ UCA3596 ✈ 09-Oct-2013 ✈ KBGM - KIAD

Flight Track Log - Related Links

Times and Time Zones

All times are in EDT time to prevent confusion due to time zone crossing. See the UCA3596 flight status page for this flight to view local times or setup timezone preferences in your user account.

Time Position Orientation Groundspeed Altitude Reporting Facility
EDT Latitude Longitude Course Direction KTS MPH feet Rate Location/Type
03:00PM 42.1519 -75.9933 209° Southwest 169 194 3,700  Level New York Center
03:01PM 42.1128 -76.0347 218° Southwest 175 201 5,100 1,380 Climbing New York Center
03:02PM 42.0270 -76.0661 212° Southwest  Level Estimated
03:02PM 42.0692 -76.0761 215° Southwest 187 215 6,500  Level New York Center
03:03PM 41.9665 -76.0949 209° Southwest  Level Estimated
03:03PM 42.0236 -76.1197 215° Southwest 200 230 7,900  Level New York Center
03:04PM 41.9286 -76.1645 234° Southwest  Level FlightAware Approximate
03:04PM 41.9736 -76.1689 216° Southwest 206 237 9,400  Level New York Center
03:05PM 41.8679 -76.1922 209° Southwest  Level Estimated
03:05PM 41.9278 -76.2125 215° Southwest 206 237 10,800  Level New York Center
03:06PM 41.8819 -76.2561 215° Southwest 206 237 11,800 960 Climbing New York Center
03:07PM 41.8406 -76.2972 217° Southwest 211 243 12,800 1,020 Climbing New York Center
03:08PM 41.7839 -76.3508 215° Southwest 221 254 13,900 600 Climbing New York Center
03:09PM 41.7294 -76.4047 216° Southwest 236 272 14,000  Climbing New York Center
03:10PM 41.6683 -76.4606 214° Southwest 259 298 14,000  Level New York Center
03:11PM 41.6136 -76.5142 216° Southwest 274 315 14,000  Level New York Center
03:12PM 41.5503 -76.5756 216° Southwest 279 321 14,000  Level New York Center
03:13PM 41.4806 -76.6386 214° Southwest 279 321 14,000  Level New York Center
03:14PM 41.4256 -76.6975 219° Southwest 279 321 14,000  Level New York Center
03:15PM 41.3622 -76.7556 215° Southwest 279 321 14,000  Level New York Center
03:16PM 41.2897 -76.7906 200° South 279 321 14,000  Level New York Center
03:17PM 41.2161 -76.8033 187° South 271 312 14,000  Level New York Center
03:18PM 41.1403 -76.8186 189° South 271 312 14,000  Level New York Center
03:19PM 41.0647 -76.8311 187° South 271 312 14,000  Level New York Center
03:20PM 40.9994 -76.8444 189° South 277 319 14,000  Level New York Center
03:21PM 40.9172 -76.8592 188° South 277 319 14,000  Level New York Center
03:22PM 40.8353 -76.8764 189° South 277 319 14,000  Level New York Center
03:23PM 40.7697 -76.8925 191° South 277 319 14,000  Level New York Center
03:24PM 40.6872 -76.9181 193° South 284 327 14,000  Level New York Center
03:26PM 40.6079 -76.9399 192° South  Level FlightAware Approximate
03:26PM 40.5389 -76.9650 192° South 279 321 14,000  Level New York Center
03:27PM 40.4644 -76.9883 193° South 279 321 14,000  Level New York Center
03:28PM 40.3925 -77.0089 192° South 279 321 14,000  Level New York Center
03:29PM 40.3164 -77.0322 193° South 284 327 14,000  Level New York Center
03:30PM 40.2422 -77.0525 192° South 284 327 14,000  Level New York Center
03:31PM 40.1700 -77.0786 195° South 284 327 14,000 -240 Level New York Center
03:34PM 40.0000 -77.1333 194° South 281 323 13,400 -480 Descending Potomac TRACON
03:35PM 39.9333 -77.1500 191° South 296 341 12,500 -1,200 Descending Potomac TRACON
03:36PM 39.8500 -77.2000 205° Southwest 303 349 11,200 -1,320 Descending Potomac TRACON
03:37PM 39.7667 -77.2500 205° Southwest 287 330 9,900 -1,320 Descending Potomac TRACON
03:38PM 39.7000 -77.2833 201° Southwest 272 313 8,600 -1,320 Descending Potomac TRACON
03:38PM 39.6500 -77.3333 218° Southwest 265 305 7,500 -900 Descending Potomac TRACON
03:39PM 39.5667 -77.3333 180° South 256 295 7,000 -600 Descending Potomac TRACON
03:40PM 39.5000 -77.3333 180° South 260 299 6,300 -900 Descending Potomac TRACON
03:41PM 39.4333 -77.3333 180° South 262 302 5,300 -720 Descending Potomac TRACON
03:42PM 39.3667 -77.3500 191° South 259 298 5,000 -180 Descending Potomac TRACON
03:43PM 39.3000 -77.3500 180° South 255 293 5,000 -360 Level Potomac TRACON
03:44PM 39.2333 -77.3500 180° South 255 293 4,300 -540 Descending Potomac TRACON
03:45PM 39.1500 -77.3500 180° South 259 298 4,000 -180 Descending Potomac TRACON
03:46PM 39.0833 -77.3500 180° South 245 282 4,000  Level Potomac TRACON
03:48PM 39.0167 -77.3500 180° South 247 284 4,000 -180 Level Potomac TRACON
03:49PM 38.9333 -77.3500 180° South 250 288 3,700 -540 Descending Potomac TRACON
03:49PM 38.8833 -77.3500 180° South 239 275 3,000 -420 Descending Potomac TRACON
03:50PM 38.8167 -77.3500 180° South 212 244 3,000 -240 Level Potomac TRACON
03:52PM 38.7667 -77.4000 218° Southwest 225 259 2,500 -540 Descending Potomac TRACON
03:52PM 38.8000 -77.4333 322° Northwest 183 211 2,000 -360 Descending Potomac TRACON
03:53PM 38.8333 -77.4333 360° North 146 168 1,900 -420 Descending Potomac TRACON
03:54PM 38.8833 -77.4333 360° North 141 162 1,200 -720 Descending Potomac TRACON
03:55PM 38.9167 -77.4333 360° North 138 159 500 -720 Descending Potomac TRACON
03:57PM 38.9333 -77.4500 349° North  Level FlightAware Approximate
04:04PM 38.9474 -77.4599 349° North  Level Estimated